Denver City, Texas
Current Conditions -  °F | °C
As of 4:15 PM on Tuesday 21 Oct 2014 (Local Time) from KGNC Reporting Station
Scattered Clouds Scattered Clouds  
Wind Chill: 69°   Ceiling: Unl
Heat Index: 69°   Visibility: 10mi
Dew Point: 54°   Wind: 8mph
Humidity: 59%   Direction: 160°SSE
Pressure: 30.08"   Gusts: NA
Location:  32.96°N, 102.82°W
Report Text: KGNC 212115Z AUTO 16007KT 10SM SCT035 SCT070 21/12 A3008 RMK AO2 T02070123
Loading
Personal Weather Stations






























Interactive Weather Map
Tropical Storm Tracking
New forecast layout! Learn more

10-Day Weather Forecast

Advertisements
Track Severe Weather on mobile